Time;durP1;ratioP1;P1;durP2;ratioP2;P2;SDS_P1;SDS_P2;PMS_P1;PMS_P2;Temp;Humidity;BMP_temperature;BMP_pressure;BME280_temperature;BME280_humidity;BME280_pressure;Samples;Min_cycle;Max_cycle;Signal;HPM_P1;HPM_P2
2023/05/20 00:00:21;;;;;;;3.40;1.95;;;;;;;7.11;100.00;102104.06;5116969;27;20124;-51
2023/05/20 00:02:47;;;;;;;3.85;2.10;;;;;;;6.98;100.00;102102.44;5113020;27;20056;-48
2023/05/20 00:05:12;;;;;;;3.25;2.10;;;;;;;6.84;100.00;102109.81;5121068;27;20039;-49
2023/05/20 00:07:37;;;;;;;2.33;1.52;;;;;;;6.80;100.00;102108.41;5114612;27;20059;-49
2023/05/20 00:10:03;;;;;;;3.78;2.15;;;;;;;6.84;100.00;102113.31;5120163;27;20042;-54
2023/05/20 00:12:28;;;;;;;1.67;1.58;;;;;;;6.77;100.00;102105.06;5123949;27;20027;-50
2023/05/20 00:14:53;;;;;;;1.98;1.55;;;;;;;6.77;100.00;102115.63;5119594;27;20077;-49
2023/05/20 00:17:18;;;;;;;1.58;1.48;;;;;;;6.72;100.00;102109.06;5129668;27;20486;-52
2023/05/20 00:19:44;;;;;;;2.42;1.98;;;;;;;6.61;100.00;102116.97;5119069;27;20031;-48
2023/05/20 00:22:09;;;;;;;3.63;1.88;;;;;;;6.63;100.00;102107.16;5117598;27;20015;-51
2023/05/20 00:24:35;;;;;;;1.88;1.38;;;;;;;6.49;100.00;102108.28;5118637;27;20035;-50
2023/05/20 00:27:01;;;;;;;7.20;2.28;;;;;;;6.42;100.00;102107.09;5131418;27;20075;-49
2023/05/20 00:29:27;;;;;;;1.05;1.00;;;;;;;6.34;100.00;102100.66;5119281;27;20031;-53
2023/05/20 00:31:53;;;;;;;5.57;1.95;;;;;;;6.29;100.00;102112.53;5123864;27;20483;-51
2023/05/20 00:34:19;;;;;;;1.58;1.45;;;;;;;6.25;100.00;102109.31;5122161;27;20039;-50
2023/05/20 00:36:44;;;;;;;3.08;2.00;;;;;;;6.23;100.00;102113.84;5125669;27;20114;-53
2023/05/20 00:39:09;;;;;;;5.53;2.38;;;;;;;6.25;100.00;102103.22;5117597;27;20023;-53
2023/05/20 00:41:35;;;;;;;7.47;2.35;;;;;;;6.12;100.00;102106.00;5111756;27;20035;-51
2023/05/20 00:44:00;;;;;;;5.25;2.20;;;;;;;6.03;100.00;102109.34;5120859;27;20427;-52
2023/05/20 00:46:27;;;;;;;2.42;2.05;;;;;;;5.96;100.00;102108.13;5117497;27;20455;-52
2023/05/20 00:48:53;;;;;;;2.90;2.08;;;;;;;5.86;100.00;102106.22;5117739;27;20581;-52
2023/05/20 00:51:18;;;;;;;8.55;1.75;;;;;;;5.86;100.00;102108.84;5117445;27;20081;-52
2023/05/20 00:53:44;;;;;;;3.22;1.70;;;;;;;5.94;100.00;102107.41;5117974;27;20525;-51
2023/05/20 00:56:10;;;;;;;4.75;1.77;;;;;;;5.51;100.00;102105.47;5117567;27;20126;-48
2023/05/20 00:58:36;;;;;;;3.42;1.15;;;;;;;5.05;100.00;102108.97;5119583;27;20028;-50
2023/05/20 01:01:02;;;;;;;1.23;1.15;;;;;;;5.10;100.00;102115.56;5118454;27;20043;-51
2023/05/20 01:03:28;;;;;;;3.65;1.27;;;;;;;5.01;100.00;102111.84;5119968;27;20379;-51
2023/05/20 01:05:53;;;;;;;2.75;1.50;;;;;;;4.84;100.00;102112.25;5125287;27;20072;-51
2023/05/20 01:08:20;;;;;;;4.28;1.63;;;;;;;5.06;100.00;102114.13;5125700;27;20571;-50
2023/05/20 01:10:48;;;;;;;4.93;1.92;;;;;;;5.32;100.00;102106.91;5100717;27;20482;-51
2023/05/20 01:13:17;;;;;;;7.68;1.77;;;;;;;5.00;100.00;102097.00;5113919;27;20047;-50
2023/05/20 01:15:45;;;;;;;3.03;2.25;;;;;;;5.06;100.00;102100.13;5122916;27;20027;-51
2023/05/20 01:18:17;;;;;;;4.35;1.77;;;;;;;5.19;100.00;102095.63;5120740;27;20042;-55
2023/05/20 01:20:46;;;;;;;1.02;0.98;;;;;;;4.73;100.00;102088.56;5118397;27;20127;-53
2023/05/20 01:23:11;;;;;;;3.92;1.50;;;;;;;4.54;100.00;102094.31;5119799;27;20027;-48
2023/05/20 01:25:36;;;;;;;2.08;1.58;;;;;;;4.44;100.00;102083.66;5122804;27;20039;-50
2023/05/20 01:28:02;;;;;;;1.35;1.25;;;;;;;4.36;100.00;102096.50;5120834;27;20073;-52
2023/05/20 01:30:33;;;;;;;3.40;1.35;;;;;;;4.31;100.00;102093.34;5123646;27;20030;-50
2023/05/20 01:33:06;;;;;;;1.00;0.88;;;;;;;4.26;100.00;102093.72;5120696;27;20019;-48
2023/05/20 01:35:32;;;;;;;1.92;1.40;;;;;;;4.21;100.00;102097.59;5121007;27;20507;-51
2023/05/20 01:38:00;;;;;;;3.22;1.30;;;;;;;4.18;100.00;102100.44;5125120;27;20031;-49
2023/05/20 01:40:27;;;;;;;1.45;0.80;;;;;;;4.24;100.00;102086.88;5115983;27;20624;-49
2023/05/20 01:42:54;;;;;;;2.03;1.90;;;;;;;4.34;100.00;102087.91;5119119;27;20030;-53
2023/05/20 01:45:19;;;;;;;2.22;1.83;;;;;;;4.50;100.00;102083.19;5119724;27;20046;-48
2023/05/20 01:47:45;;;;;;;3.67;1.75;;;;;;;4.17;100.00;102085.66;5114222;27;20815;-50
2023/05/20 01:50:10;;;;;;;2.30;1.92;;;;;;;4.08;100.00;102089.75;5116168;27;20030;-49
2023/05/20 01:52:35;;;;;;;10.35;2.67;;;;;;;4.08;100.00;102090.63;5114648;27;20032;-52
2023/05/20 01:55:01;;;;;;;2.70;1.92;;;;;;;4.10;100.00;102080.81;5119664;27;20445;-50
2023/05/20 01:57:26;;;;;;;3.63;1.23;;;;;;;4.36;100.00;102088.59;5117023;27;20028;-52
2023/05/20 01:59:51;;;;;;;2.15;1.40;;;;;;;4.63;100.00;102082.31;5119235;27;20331;-53
2023/05/20 02:02:17;;;;;;;6.80;2.22;;;;;;;4.64;100.00;102079.56;5112700;27;20031;-49
2023/05/20 02:04:48;;;;;;;6.35;2.20;;;;;;;4.29;100.00;102072.47;5115583;27;20030;-48
2023/05/20 02:07:17;;;;;;;3.78;2.47;;;;;;;4.43;100.00;102075.88;5114776;27;20506;-52
2023/05/20 02:09:43;;;;;;;9.38;2.92;;;;;;;4.54;100.00;102068.91;5115322;27;20482;-50
2023/05/20 02:12:15;;;;;;;5.47;2.00;;;;;;;4.53;100.00;102077.72;5114860;27;20031;-51
2023/05/20 02:14:40;;;;;;;7.95;1.83;;;;;;;4.49;100.00;102064.91;5116004;27;20035;-52
2023/05/20 02:17:05;;;;;;;2.10;1.70;;;;;;;4.27;100.00;102060.41;5120294;27;20039;-52
2023/05/20 02:19:31;;;;;;;3.58;1.58;;;;;;;4.44;100.00;102065.28;5112526;27;20031;-49
2023/05/20 02:21:56;;;;;;;13.63;2.72;;;;;;;4.42;100.00;102064.53;5115177;27;20035;-49
2023/05/20 02:24:21;;;;;;;8.50;1.67;;;;;;;4.47;100.00;102065.06;5112984;27;20395;-50
2023/05/20 02:26:49;;;;;;;1.65;1.17;;;;;;;4.46;100.00;102062.53;5119741;27;20027;-50
2023/05/20 02:29:15;;;;;;;3.90;1.60;;;;;;;3.95;100.00;102066.19;5111611;27;20122;-52
2023/05/20 02:31:40;;;;;;;1.10;1.00;;;;;;;3.75;100.00;102070.22;5119233;27;20023;-50
2023/05/20 02:34:05;;;;;;;2.60;2.05;;;;;;;3.65;100.00;102070.00;5119764;27;20387;-48
2023/05/20 02:36:31;;;;;;;3.50;1.55;;;;;;;3.66;100.00;102071.69;5118665;27;20027;-50
2023/05/20 02:38:56;;;;;;;5.60;3.30;;;;;;;3.81;100.00;102080.25;5114258;27;20039;-49
2023/05/20 02:41:22;;;;;;;2.80;1.85;;;;;;;3.96;100.00;102080.97;5111035;27;20718;-49
2023/05/20 02:43:47;;;;;;;4.25;2.15;;;;;;;4.13;100.00;102082.38;5115306;27;20047;-49
2023/05/20 02:46:12;;;;;;;2.90;2.58;;;;;;;4.38;100.00;102084.09;5109556;27;20119;-51
2023/05/20 02:48:38;;;;;;;5.03;2.85;;;;;;;4.63;100.00;102092.81;5109450;27;20077;-48
2023/05/20 02:51:04;;;;;;;4.32;2.63;;;;;;;4.82;100.00;102088.69;5119169;27;20027;-50
2023/05/20 02:53:29;;;;;;;3.17;2.42;;;;;;;5.14;100.00;102100.41;5113843;27;20067;-52
2023/05/20 02:55:56;;;;;;;6.95;2.78;;;;;;;5.25;100.00;102101.25;5116417;27;20744;-52
2023/05/20 02:58:25;;;;;;;3.47;2.75;;;;;;;5.29;100.00;102101.00;5118507;27;20032;-49
2023/05/20 03:00:51;;;;;;;9.05;4.35;;;;;;;5.29;100.00;102095.75;5116276;27;20027;-49
2023/05/20 03:03:16;;;;;;;13.90;3.55;;;;;;;5.27;100.00;102095.03;5116978;27;20400;-49
2023/05/20 03:05:44;;;;;;;3.90;2.90;;;;;;;5.25;100.00;102097.78;5113858;27;20054;-49
2023/05/20 03:08:10;;;;;;;4.95;2.35;;;;;;;5.33;100.00;102089.31;5110363;27;20032;-47
2023/05/20 03:10:36;;;;;;;9.13;3.28;;;;;;;5.35;100.00;102082.97;5116260;27;20083;-51
2023/05/20 03:13:03;;;;;;;8.80;3.60;;;;;;;5.29;100.00;102086.06;5111179;27;20028;-52
2023/05/20 03:15:29;;;;;;;7.50;3.47;;;;;;;5.13;100.00;102081.13;5110145;27;20038;-52
2023/05/20 03:17:54;;;;;;;6.55;3.45;;;;;;;5.20;100.00;102084.97;5113039;27;20023;-48
2023/05/20 03:20:20;;;;;;;8.00;3.88;;;;;;;5.42;100.00;102084.19;5111651;27;20061;-52
2023/05/20 03:22:45;;;;;;;11.98;6.72;;;;;;;5.42;100.00;102088.59;5119474;27;20032;-52
2023/05/20 03:25:11;;;;;;;7.47;5.18;;;;;;;6.15;100.00;102074.13;5113434;27;20061;-50
2023/05/20 03:27:36;;;;;;;9.80;5.05;;;;;;;6.23;100.00;102076.16;5113050;27;20474;-48
2023/05/20 03:30:03;;;;;;;6.80;3.83;;;;;;;5.63;100.00;102072.97;5117658;27;20506;-49
2023/05/20 03:32:29;;;;;;;5.50;3.83;;;;;;;5.44;100.00;102074.38;5107238;27;20039;-52
2023/05/20 03:34:56;;;;;;;4.75;2.47;;;;;;;5.33;100.00;102070.91;5109495;27;20032;-50
2023/05/20 03:37:22;;;;;;;4.85;3.92;;;;;;;5.23;100.00;102074.22;5110279;27;20027;-52
2023/05/20 03:39:48;;;;;;;5.57;3.13;;;;;;;5.22;100.00;102074.38;5115152;27;20038;-51
2023/05/20 03:42:13;;;;;;;8.77;3.85;;;;;;;5.22;100.00;102077.81;5110770;27;20040;-49
2023/05/20 03:44:38;;;;;;;8.30;4.63;;;;;;;5.21;100.00;102086.69;5116238;27;20138;-48
2023/05/20 03:47:04;;;;;;;8.43;4.78;;;;;;;5.30;100.00;102086.94;5117893;27;20781;-52
2023/05/20 03:49:29;;;;;;;6.38;4.30;;;;;;;5.35;100.00;102085.63;5119540;27;20065;-48
2023/05/20 03:51:54;;;;;;;4.63;3.33;;;;;;;5.31;100.00;102089.41;5117577;27;20016;-48
2023/05/20 03:54:20;;;;;;;11.77;5.65;;;;;;;5.33;100.00;102087.53;5115742;27;20489;-49
2023/05/20 03:56:45;;;;;;;14.57;5.53;;;;;;;5.55;100.00;102086.72;5121705;27;20480;-51
2023/05/20 03:59:11;;;;;;;5.13;3.72;;;;;;;5.53;100.00;102091.25;5117333;27;20447;-47
2023/05/20 04:01:36;;;;;;;7.53;4.85;;;;;;;5.60;100.00;102084.56;5126481;27;20196;-49
2023/05/20 04:04:02;;;;;;;6.00;4.55;;;;;;;5.45;100.00;102091.84;5113813;27;20511;-49
2023/05/20 04:06:27;;;;;;;4.35;3.08;;;;;;;5.33;100.00;102091.94;5112862;27;20357;-49
2023/05/20 04:08:53;;;;;;;8.80;3.60;;;;;;;5.29;100.00;102091.31;5104206;27;20031;-52
2023/05/20 04:11:18;;;;;;;6.95;5.05;;;;;;;5.34;100.00;102083.91;5111581;27;20032;-48
2023/05/20 04:13:44;;;;;;;3.78;2.42;;;;;;;5.14;100.00;102087.25;5114185;27;20039;-50
2023/05/20 04:16:09;;;;;;;6.40;3.00;;;;;;;5.10;100.00;102083.19;5115883;27;20065;-51
2023/05/20 04:18:37;;;;;;;6.00;3.22;;;;;;;5.07;100.00;102097.38;5115780;27;20036;-49
2023/05/20 04:21:03;;;;;;;8.23;3.83;;;;;;;5.07;100.00;102083.41;5118961;27;20042;-50
2023/05/20 04:23:28;;;;;;;7.38;2.90;;;;;;;5.25;100.00;102080.22;5112980;27;20051;-48
2023/05/20 04:25:54;;;;;;;8.85;3.55;;;;;;;5.41;100.00;102090.41;5121038;27;20415;-49
2023/05/20 04:28:22;;;;;;;8.05;3.88;;;;;;;5.50;100.00;102088.00;5123252;27;20112;-48
2023/05/20 04:30:48;;;;;;;4.47;3.78;;;;;;;5.62;100.00;102084.44;5118403;27;20106;-47
2023/05/20 04:33:15;;;;;;;5.93;4.35;;;;;;;5.72;100.00;102080.13;5122382;27;20078;-53
2023/05/20 04:35:40;;;;;;;4.78;3.90;;;;;;;5.77;100.00;102085.03;5120473;27;20407;-49
2023/05/20 04:38:07;;;;;;;10.05;3.72;;;;;;;5.81;100.00;102081.22;5120101;27;20532;-47
2023/05/20 04:40:32;;;;;;;6.13;3.08;;;;;;;5.87;100.00;102076.28;5116825;27;20027;-48
2023/05/20 04:43:02;;;;;;;11.60;5.70;;;;;;;6.08;100.00;102081.69;5126165;27;20473;-52
2023/05/20 04:45:28;;;;;;;10.40;3.10;;;;;;;6.16;100.00;102070.53;5120874;27;20123;-51
2023/05/20 04:47:54;;;;;;;11.13;4.05;;;;;;;6.24;100.00;102070.75;5105163;27;20150;-49
2023/05/20 04:50:20;;;;;;;10.77;4.05;;;;;;;6.31;100.00;102071.94;5110458;27;20110;-48
2023/05/20 04:52:46;;;;;;;7.10;3.80;;;;;;;6.28;100.00;102064.28;5123891;27;20045;-49
2023/05/20 04:55:12;;;;;;;5.45;3.45;;;;;;;6.30;100.00;102065.00;5120671;27;20042;-48
2023/05/20 04:57:40;;;;;;;5.63;2.92;;;;;;;6.32;100.00;102064.84;5117205;27;20041;-51
2023/05/20 05:00:08;;;;;;;6.53;3.15;;;;;;;6.32;100.00;102065.72;5119431;27;21221;-50
2023/05/20 05:02:34;;;;;;;6.60;2.50;;;;;;;6.52;100.00;102063.22;5115291;27;20083;-48
2023/05/20 05:04:59;;;;;;;5.70;3.38;;;;;;;6.52;100.00;102065.88;5124510;27;20511;-49
2023/05/20 05:07:25;;;;;;;4.18;3.45;;;;;;;6.62;100.00;102066.78;5124818;27;20039;-48
2023/05/20 05:09:50;;;;;;;10.02;3.78;;;;;;;6.65;100.00;102061.25;5113802;27;20027;-52
2023/05/20 05:12:15;;;;;;;7.32;3.05;;;;;;;6.74;100.00;102062.31;5124780;27;20122;-50
2023/05/20 05:14:41;;;;;;;7.00;3.45;;;;;;;6.78;100.00;102064.56;5124917;27;20030;-49
2023/05/20 05:17:06;;;;;;;4.93;2.50;;;;;;;6.91;100.00;102066.16;5120487;27;20035;-48
2023/05/20 05:19:31;;;;;;;8.02;4.93;;;;;;;7.02;100.00;102055.53;5114873;27;20038;-50
2023/05/20 05:21:56;;;;;;;7.30;3.92;;;;;;;7.07;100.00;102050.72;5110058;27;20157;-47
2023/05/20 05:24:22;;;;;;;5.88;3.60;;;;;;;7.11;100.00;102051.31;5116780;27;20488;-50
2023/05/20 05:26:53;;;;;;;5.25;4.10;;;;;;;7.18;100.00;102055.94;5105621;27;20464;-51
2023/05/20 05:29:18;;;;;;;6.45;3.60;;;;;;;7.29;100.00;102052.38;5117600;27;20425;-50
2023/05/20 05:31:43;;;;;;;9.57;3.60;;;;;;;7.35;100.00;102058.94;5117214;27;20115;-47
2023/05/20 05:34:08;;;;;;;3.97;2.22;;;;;;;7.47;100.00;102052.63;5118560;27;20035;-47
2023/05/20 05:36:34;;;;;;;6.78;2.53;;;;;;;7.42;100.00;102049.53;5122917;27;20031;-50
2023/05/20 05:38:59;;;;;;;5.07;2.33;;;;;;;7.42;100.00;102058.28;5121250;27;20681;-49
2023/05/20 05:41:24;;;;;;;4.38;3.25;;;;;;;7.34;100.00;102050.19;5121592;27;20563;-50
2023/05/20 05:43:51;;;;;;;7.32;4.50;;;;;;;7.52;100.00;102058.31;5110414;27;20306;-48
2023/05/20 05:46:16;;;;;;;9.38;2.80;;;;;;;7.68;100.00;102059.66;5121442;27;20534;-50
2023/05/20 05:48:41;;;;;;;11.13;2.92;;;;;;;7.85;100.00;102051.09;5115528;27;20122;-49
2023/05/20 05:51:07;;;;;;;5.93;2.80;;;;;;;8.03;100.00;102044.19;5119131;27;20055;-50
2023/05/20 05:53:32;;;;;;;6.85;4.25;;;;;;;7.94;100.00;102047.63;5121210;27;20027;-48
2023/05/20 05:55:57;;;;;;;3.58;2.55;;;;;;;8.15;100.00;102047.53;5119326;27;20411;-50
2023/05/20 05:58:22;;;;;;;7.80;2.72;;;;;;;8.29;100.00;102033.91;5117577;27;20026;-51
2023/05/20 06:00:51;;;;;;;7.32;2.80;;;;;;;8.40;100.00;102035.63;5111155;27;20046;-53
2023/05/20 06:03:16;;;;;;;9.00;2.50;;;;;;;8.42;100.00;102028.41;5120107;27;20077;-50
2023/05/20 06:05:46;;;;;;;5.47;2.40;;;;;;;8.51;100.00;102024.06;5120202;27;20067;-49
2023/05/20 06:08:11;;;;;;;7.22;2.42;;;;;;;8.56;100.00;102028.94;5118061;27;20027;-50
2023/05/20 06:10:36;;;;;;;5.95;3.10;;;;;;;8.63;100.00;102016.84;5117236;27;20736;-49
2023/05/20 06:13:02;;;;;;;13.02;4.63;;;;;;;8.70;100.00;102018.78;5121014;27;20452;-51
2023/05/20 06:15:27;;;;;;;4.03;3.20;;;;;;;8.84;100.00;102020.13;5121900;27;20031;-51
2023/05/20 06:17:52;;;;;;;7.72;2.22;;;;;;;8.69;100.00;102018.91;5120440;27;20081;-52
2023/05/20 06:20:18;;;;;;;11.23;3.30;;;;;;;8.70;100.00;102017.94;5117764;27;20475;-50
2023/05/20 06:22:43;;;;;;;6.22;2.53;;;;;;;8.74;100.00;102021.97;5124383;27;20451;-50
2023/05/20 06:25:09;;;;;;;4.05;2.42;;;;;;;8.77;100.00;102018.22;5115608;27;20023;-46
2023/05/20 06:27:35;;;;;;;5.85;3.08;;;;;;;8.58;100.00;102009.31;5107828;27;20347;-50
2023/05/20 06:30:00;;;;;;;8.55;3.25;;;;;;;8.74;100.00;102014.84;5115944;27;20134;-49
2023/05/20 06:32:26;;;;;;;7.20;2.60;;;;;;;8.77;100.00;102018.22;5120277;27;20213;-49
2023/05/20 06:34:51;;;;;;;6.57;2.90;;;;;;;8.88;100.00;102018.91;5114113;27;20114;-50
2023/05/20 06:37:17;;;;;;;11.32;3.03;;;;;;;8.81;100.00;102015.16;5119011;27;20025;-47
2023/05/20 06:39:42;;;;;;;5.50;3.80;;;;;;;9.01;100.00;102009.78;5121207;27;20019;-51
2023/05/20 06:42:07;;;;;;;6.75;5.28;;;;;;;9.12;100.00;102007.00;5105608;27;20485;-50
2023/05/20 06:44:33;;;;;;;12.00;5.90;;;;;;;9.36;100.00;102015.25;5120867;27;20164;-51
2023/05/20 06:46:58;;;;;;;15.98;5.82;;;;;;;9.50;100.00;102002.50;5115453;27;20412;-49
2023/05/20 06:49:23;;;;;;;12.20;4.70;;;;;;;9.53;100.00;102002.25;5101560;28;20019;-50
2023/05/20 06:51:49;;;;;;;10.20;4.07;;;;;;;9.64;100.00;101995.91;5118606;27;20197;-50
2023/05/20 06:54:14;;;;;;;9.10;3.97;;;;;;;9.82;100.00;101988.81;5121077;27;20039;-50
2023/05/20 06:56:40;;;;;;;6.00;3.65;;;;;;;9.91;100.00;101984.44;5120248;27;20034;-49
2023/05/20 06:59:05;;;;;;;8.57;3.55;;;;;;;9.95;100.00;101976.03;5118537;27;20053;-50
2023/05/20 07:01:30;;;;;;;6.03;3.20;;;;;;;10.11;100.00;101975.38;5118567;27;20219;-51
2023/05/20 07:03:56;;;;;;;5.18;2.60;;;;;;;10.31;100.00;101970.78;5118018;27;20508;-49
2023/05/20 07:06:21;;;;;;;8.70;4.53;;;;;;;10.28;100.00;101960.47;5118142;27;20092;-54
2023/05/20 07:08:47;;;;;;;11.80;3.10;;;;;;;10.43;100.00;101966.91;5118757;27;20022;-49
2023/05/20 07:11:12;;;;;;;10.23;3.90;;;;;;;10.52;100.00;101962.50;5116294;27;20080;-53
2023/05/20 07:13:37;;;;;;;9.80;3.08;;;;;;;10.58;100.00;101961.03;5116440;27;20066;-49
2023/05/20 07:16:03;;;;;;;7.50;2.80;;;;;;;10.64;100.00;101952.47;5109953;27;20251;-52
2023/05/20 07:18:28;;;;;;;10.48;4.00;;;;;;;10.70;100.00;101954.50;5116677;27;20027;-51
2023/05/20 07:20:55;;;;;;;14.43;3.85;;;;;;;10.87;100.00;101950.13;5114738;27;20418;-49
2023/05/20 07:23:21;;;;;;;5.68;3.97;;;;;;;11.03;100.00;101944.06;5122803;27;20138;-49
2023/05/20 07:25:47;;;;;;;10.27;3.80;;;;;;;11.11;100.00;101942.28;5116515;27;20759;-51
2023/05/20 07:28:15;;;;;;;4.50;3.15;;;;;;;11.28;100.00;101951.16;5121499;27;20046;-49
2023/05/20 07:30:40;;;;;;;7.18;3.08;;;;;;;11.50;100.00;101946.25;5122034;27;20067;-52
2023/05/20 07:33:06;;;;;;;6.20;2.20;;;;;;;11.62;100.00;101949.47;5121502;27;20058;-50
2023/05/20 07:35:31;;;;;;;12.55;3.92;;;;;;;11.65;100.00;101943.81;5121577;27;20023;-50
2023/05/20 07:37:57;;;;;;;7.18;3.33;;;;;;;11.59;100.00;101937.34;5120994;27;20103;-48
2023/05/20 07:40:22;;;;;;;4.20;2.22;;;;;;;11.74;100.00;101933.03;5120169;27;20524;-49
2023/05/20 07:42:47;;;;;;;10.77;2.92;;;;;;;11.90;100.00;101921.63;5100757;27;20579;-51
2023/05/20 07:45:13;;;;;;;6.47;2.63;;;;;;;12.03;100.00;101926.47;5117671;27;20039;-47
2023/05/20 07:47:38;;;;;;;7.40;3.90;;;;;;;12.16;100.00;101931.28;5122273;27;20031;-48
2023/05/20 07:50:04;;;;;;;10.60;3.03;;;;;;;12.30;100.00;101937.75;5120512;27;20518;-48
2023/05/20 07:52:30;;;;;;;6.60;2.60;;;;;;;12.29;100.00;101926.31;5111742;27;20024;-48
2023/05/20 07:54:55;;;;;;;11.30;2.55;;;;;;;12.29;100.00;101920.97;5102742;27;20054;-51
2023/05/20 07:57:20;;;;;;;5.20;2.33;;;;;;;12.09;100.00;101917.00;5115644;27;20526;-48
2023/05/20 07:59:46;;;;;;;20.05;4.93;;;;;;;11.94;100.00;101920.28;5119349;27;20155;-51
2023/05/20 08:02:11;;;;;;;8.18;3.78;;;;;;;12.20;100.00;101922.78;5121965;27;20495;-48
2023/05/20 08:04:36;;;;;;;10.77;3.50;;;;;;;12.23;100.00;101921.63;5113962;27;20035;-48
2023/05/20 08:07:02;;;;;;;7.03;3.70;;;;;;;12.33;100.00;101914.31;5118368;27;20243;-49
2023/05/20 08:09:29;;;;;;;6.57;3.25;;;;;;;12.54;100.00;101910.31;5115361;27;20023;-48
2023/05/20 08:11:54;;;;;;;7.28;2.95;;;;;;;12.75;100.00;101915.94;5115612;27;20031;-50
2023/05/20 08:14:20;;;;;;;11.25;3.28;;;;;;;12.92;100.00;101913.22;5124617;27;20038;-46
2023/05/20 08:16:45;;;;;;;5.88;2.17;;;;;;;13.05;100.00;101910.81;5120310;27;20027;-48
2023/05/20 08:19:11;;;;;;;5.53;2.38;;;;;;;13.09;100.00;101897.00;5110399;27;20040;-47
2023/05/20 08:21:36;;;;;;;7.70;2.25;;;;;;;13.07;100.00;101895.50;5119138;27;20027;-47
2023/05/20 08:24:01;;;;;;;7.80;2.90;;;;;;;13.18;100.00;101889.78;5102103;27;20035;-49
2023/05/20 08:26:27;;;;;;;3.40;2.03;;;;;;;13.40;100.00;101887.38;5111327;27;20776;-49
2023/05/20 08:28:52;;;;;;;7.43;2.85;;;;;;;13.44;100.00;101878.88;5119729;27;20152;-53
2023/05/20 08:31:18;;;;;;;9.93;2.72;;;;;;;13.52;100.00;101876.16;5113997;27;20717;-48
2023/05/20 08:33:43;;;;;;;5.93;3.00;;;;;;;13.75;100.00;101875.34;5108782;27;20146;-50
2023/05/20 08:36:09;;;;;;;8.80;2.28;;;;;;;13.89;100.00;101874.56;5118080;27;20119;-51
2023/05/20 08:38:35;;;;;;;5.85;2.45;;;;;;;13.84;100.00;101876.13;5106138;27;20537;-50
2023/05/20 08:41:00;;;;;;;14.30;3.13;;;;;;;14.06;100.00;101867.25;5114098;27;20051;-49
2023/05/20 08:43:26;;;;;;;6.68;3.10;;;;;;;14.15;100.00;101870.69;5110122;27;20479;-46
2023/05/20 08:45:51;;;;;;;5.20;2.50;;;;;;;14.44;100.00;101872.56;5121343;27;20466;-49
2023/05/20 08:48:17;;;;;;;6.95;2.42;;;;;;;14.32;100.00;101864.16;5118411;27;20114;-48
2023/05/20 08:50:49;;;;;;;6.45;2.58;;;;;;;14.36;100.00;101865.47;5115116;27;20031;-49
2023/05/20 08:53:15;;;;;;;6.93;2.30;;;;;;;14.82;100.00;101861.84;5124565;27;20119;-51
2023/05/20 08:55:56;;;;;;;7.72;2.72;;;;;;;15.03;100.00;101856.56;5113193;27;20064;-52
2023/05/20 08:58:22;;;;;;;4.38;1.67;;;;;;;15.09;100.00;101854.97;5120300;27;20576;-49
2023/05/20 09:00:48;;;;;;;8.07;2.08;;;;;;;15.05;100.00;101851.88;5114154;27;20783;-48
2023/05/20 09:03:13;;;;;;;3.58;1.85;;;;;;;15.30;100.00;101850.69;5121296;27;20031;-48
2023/05/20 09:05:38;;;;;;;6.10;1.70;;;;;;;15.57;100.00;101844.63;5121637;27;20118;-48
2023/05/20 09:08:08;;;;;;;9.70;1.23;;;;;;;15.58;100.00;101840.09;5116072;27;20118;-50
2023/05/20 09:10:35;;;;;;;8.98;2.45;;;;;;;15.55;100.00;101840.47;5103344;27;20506;-47
2023/05/20 09:13:03;;;;;;;2.35;0.93;;;;;;;15.83;100.00;101833.38;5116640;27;20033;-50
2023/05/20 09:15:33;;;;;;;4.30;1.73;;;;;;;15.88;100.00;101836.28;5121749;27;20031;-47
2023/05/20 09:18:00;;;;;;;4.97;1.23;;;;;;;16.03;100.00;101838.03;5123612;27;20430;-50
2023/05/20 09:20:28;;;;;;;9.63;1.65;;;;;;;16.15;100.00;101841.84;5119589;27;20100;-47
2023/05/20 09:22:53;;;;;;;9.80;2.03;;;;;;;16.29;100.00;101827.53;5118435;27;20035;-49
2023/05/20 09:25:22;;;;;;;4.65;1.42;;;;;;;16.42;100.00;101825.94;5119591;27;20491;-50
2023/05/20 09:27:49;;;;;;;3.70;1.45;;;;;;;16.47;100.00;101835.06;5118381;27;20037;-47
2023/05/20 09:30:18;;;;;;;9.13;1.27;;;;;;;16.65;100.00;101826.50;5115706;27;20031;-47
2023/05/20 09:32:43;;;;;;;5.55;1.05;;;;;;;16.78;100.00;101825.78;5115509;27;20392;-51
2023/05/20 09:35:12;;;;;;;2.38;1.52;;;;;;;16.97;100.00;101830.38;5115452;27;20038;-49
2023/05/20 09:37:41;;;;;;;7.03;2.03;;;;;;;16.99;100.00;101822.97;5118105;27;20069;-50
2023/05/20 09:40:09;;;;;;;4.68;1.98;;;;;;;16.83;100.00;101814.44;5119796;27;20031;-49
2023/05/20 09:42:51;;;;;;;4.65;1.52;;;;;;;17.03;100.00;101819.88;5116164;27;20451;-47
2023/05/20 09:45:17;;;;;;;5.03;1.48;;;;;;;16.95;100.00;101820.88;5116813;27;20054;-47
2023/05/20 09:47:44;;;;;;;5.50;1.00;;;;;;;16.78;100.00;101815.88;5117122;27;20069;-48
2023/05/20 09:50:10;;;;;;;11.75;2.03;;;;;;;16.85;100.00;101823.09;5110946;27;20580;-46
2023/05/20 09:52:37;;;;;;;4.25;1.67;;;;;;;17.01;100.00;101817.38;5115212;27;20092;-47
2023/05/20 09:55:04;;;;;;;4.88;0.98;;;;;;;17.46;100.00;101804.31;5124586;27;20353;-46
2023/05/20 09:57:32;;;;;;;18.83;2.85;;;;;;;17.30;100.00;101802.03;5107275;27;20118;-50
2023/05/20 09:59:58;;;;;;;6.68;1.33;;;;;;;17.07;100.00;101797.84;5132491;27;20031;-47
2023/05/20 10:02:23;;;;;;;7.00;1.85;;;;;;;16.93;100.00;101809.53;5132570;27;20041;-46
2023/05/20 10:04:51;;;;;;;4.78;1.17;;;;;;;16.94;100.00;101795.13;5128435;27;20051;-52
2023/05/20 10:07:27;;;;;;;3.63;1.52;;;;;;;17.13;100.00;101794.34;5125048;27;20502;-48
2023/05/20 10:10:05;;;;;;;6.30;1.58;;;;;;;17.16;100.00;101788.56;5130492;27;20042;-51
2023/05/20 10:13:02;;;;;;;3.17;0.88;;;;;;;17.54;100.00;101792.56;5130559;27;20066;-50
2023/05/20 10:15:33;;;;;;;3.08;0.88;;;;;;;17.61;100.00;101788.03;5133412;27;20062;-45
2023/05/20 10:18:25;;;;;;;8.27;1.55;;;;;;;17.44;100.00;101784.91;5133523;27;20031;-46
2023/05/20 10:20:50;;;;;;;6.85;1.77;;;;;;;17.62;100.00;101789.69;5132075;27;20122;-49
2023/05/20 10:23:42;;;;;;;4.63;1.33;;;;;;;17.88;100.00;101789.69;5133261;27;20106;-50
2023/05/20 10:26:07;;;;;;;3.22;0.75;;;;;;;18.37;100.00;101789.41;5130724;27;20043;-49
2023/05/20 10:28:35;;;;;;;10.20;3.90;;;;;;;18.41;100.00;101779.91;5133335;27;20026;-48
2023/05/20 10:31:01;;;;;;;6.47;1.95;;;;;;;18.31;100.00;101783.03;5125496;27;20035;-51
2023/05/20 10:33:27;;;;;;;8.43;1.92;;;;;;;18.15;100.00;101778.94;5125725;27;20031;-48
2023/05/20 10:35:56;;;;;;;4.50;2.13;;;;;;;18.25;100.00;101776.66;5131860;27;20041;-54
2023/05/20 10:38:22;;;;;;;6.57;2.28;;;;;;;18.50;100.00;101774.06;5135003;27;20079;-50
2023/05/20 10:40:47;;;;;;;15.15;3.67;;;;;;;18.63;100.00;101767.00;5135180;27;20022;-52
2023/05/20 10:43:24;;;;;;;9.40;3.10;;;;;;;19.06;100.00;101763.72;5138390;27;20030;-49
2023/05/20 10:45:52;;;;;;;7.53;2.67;;;;;;;19.31;100.00;101764.59;5128701;27;20039;-52
2023/05/20 10:48:28;;;;;;;7.40;2.53;;;;;;;19.44;100.00;101765.50;5110917;27;20030;-50
2023/05/20 10:50:58;;;;;;;21.88;4.70;;;;;;;19.55;100.00;101762.94;5127947;27;20115;-49
2023/05/20 10:53:26;;;;;;;14.98;2.83;;;;;;;19.22;100.00;101759.69;5133120;27;20583;-51
2023/05/20 10:55:53;;;;;;;27.95;9.13;;;;;;;19.66;100.00;101753.34;5129757;27;20031;-50
2023/05/20 10:58:20;;;;;;;5.95;2.75;;;;;;;19.72;100.00;101759.72;5129277;27;20025;-55
2023/05/20 11:00:47;;;;;;;4.40;1.17;;;;;;;19.76;100.00;101742.94;5133733;27;20023;-50
2023/05/20 11:03:14;;;;;;;4.72;0.82;;;;;;;19.62;100.00;101752.16;5129934;27;20531;-50
2023/05/20 11:05:39;;;;;;;11.80;1.23;;;;;;;19.77;100.00;101749.97;5132386;27;20027;-51
2023/05/20 11:08:07;;;;;;;7.53;1.75;;;;;;;20.05;100.00;101741.38;5130860;27;20083;-48
2023/05/20 11:10:36;;;;;;;4.53;1.13;;;;;;;20.03;100.00;101743.50;5125843;27;20031;-48
2023/05/20 11:13:03;;;;;;;33.45;9.25;;;;;;;19.67;100.00;101738.91;5128104;27;21492;-55
2023/05/20 11:15:29;;;;;;;5.90;1.98;;;;;;;19.36;100.00;101737.88;5132500;27;20030;-47
2023/05/20 11:17:56;;;;;;;3.03;0.88;;;;;;;18.73;100.00;101735.13;5126079;27;20031;-51